sensor_id;sensor_type;location;lat;lon;timestamp;temperature;humidity
3756;DHT22;1893;52.526;13.360;2022-07-23T00:01:27;18.60;1.00
3756;DHT22;1893;52.526;13.360;2022-07-23T00:03:54;18.50;1.00
3756;DHT22;1893;52.526;13.360;2022-07-23T00:06:21;18.50;1.00
3756;DHT22;1893;52.526;13.360;2022-07-23T00:08:47;18.50;1.00
3756;DHT22;1893;52.526;13.360;2022-07-23T00:11:12;18.50;1.00
3756;DHT22;1893;52.526;13.360;2022-07-23T00:13:38;18.40;1.00
3756;DHT22;1893;52.526;13.360;2022-07-23T00:16:04;18.40;1.00
3756;DHT22;1893;52.526;13.360;2022-07-23T00:18:30;18.40;1.00
3756;DHT22;1893;52.526;13.360;2022-07-23T00:20:55;18.40;1.00
3756;DHT22;1893;52.526;13.360;2022-07-23T00:23:21;18.30;1.00
3756;DHT22;1893;52.526;13.360;2022-07-23T00:25:46;18.30;1.00
3756;DHT22;1893;52.526;13.360;2022-07-23T00:28:12;18.40;1.00
3756;DHT22;1893;52.526;13.360;2022-07-23T00:30:38;18.40;1.00
3756;DHT22;1893;52.526;13.360;2022-07-23T00:33:06;18.40;1.00
3756;DHT22;1893;52.526;13.360;2022-07-23T00:35:37;18.40;1.00
3756;DHT22;1893;52.526;13.360;2022-07-23T00:38:04;18.40;1.00
3756;DHT22;1893;52.526;13.360;2022-07-23T00:40:30;18.40;1.00
3756;DHT22;1893;52.526;13.360;2022-07-23T00:42:56;18.30;1.00
3756;DHT22;1893;52.526;13.360;2022-07-23T00:45:22;18.20;1.00
3756;DHT22;1893;52.526;13.360;2022-07-23T00:47:47;18.20;1.00
3756;DHT22;1893;52.526;13.360;2022-07-23T00:50:13;18.10;1.00
3756;DHT22;1893;52.526;13.360;2022-07-23T00:52:39;18.20;1.00
3756;DHT22;1893;52.526;13.360;2022-07-23T00:55:05;18.20;1.00
3756;DHT22;1893;52.526;13.360;2022-07-23T00:57:31;18.20;1.00
3756;DHT22;1893;52.526;13.360;2022-07-23T00:59:57;18.00;1.00
3756;DHT22;1893;52.526;13.360;2022-07-23T01:02:26;18.10;1.00
3756;DHT22;1893;52.526;13.360;2022-07-23T01:04:53;18.00;1.00
3756;DHT22;1893;52.526;13.360;2022-07-23T01:07:19;18.00;1.00
3756;DHT22;1893;52.526;13.360;2022-07-23T01:09:45;18.00;1.00
3756;DHT22;1893;52.526;13.360;2022-07-23T01:12:11;17.90;1.00
3756;DHT22;1893;52.526;13.360;2022-07-23T01:14:37;18.00;1.00
3756;DHT22;1893;52.526;13.360;2022-07-23T01:17:04;17.80;1.00
3756;DHT22;1893;52.526;13.360;2022-07-23T01:19:30;17.80;1.00
3756;DHT22;1893;52.526;13.360;2022-07-23T01:21:57;17.80;1.00
3756;DHT22;1893;52.526;13.360;2022-07-23T01:24:23;17.80;1.00
3756;DHT22;1893;52.526;13.360;2022-07-23T01:26:50;17.80;16.70
3756;DHT22;1893;52.526;13.360;2022-07-23T01:29:16;17.80;19.00
3756;DHT22;1893;52.526;13.360;2022-07-23T01:31:42;17.80;20.50
3756;DHT22;1893;52.526;13.360;2022-07-23T01:34:08;17.60;64.50
3756;DHT22;1893;52.526;13.360;2022-07-23T01:36:35;17.60;92.90
3756;DHT22;1893;52.526;13.360;2022-07-23T01:39:02;17.50;99.90
3756;DHT22;1893;52.526;13.360;2022-07-23T01:41:27;17.50;99.90
3756;DHT22;1893;52.526;13.360;2022-07-23T01:43:53;17.50;99.90
3756;DHT22;1893;52.526;13.360;2022-07-23T01:46:18;17.50;99.90
3756;DHT22;1893;52.526;13.360;2022-07-23T01:48:44;17.40;99.90
3756;DHT22;1893;52.526;13.360;2022-07-23T01:51:09;17.40;99.90
3756;DHT22;1893;52.526;13.360;2022-07-23T01:53:35;17.40;99.90
3756;DHT22;1893;52.526;13.360;2022-07-23T01:56:01;17.40;99.90
3756;DHT22;1893;52.526;13.360;2022-07-23T01:58:27;17.40;99.90
3756;DHT22;1893;52.526;13.360;2022-07-23T02:00:54;17.40;99.90
3756;DHT22;1893;52.526;13.360;2022-07-23T02:03:21;17.50;99.90
3756;DHT22;1893;52.526;13.360;2022-07-23T02:05:47;17.40;99.90
3756;DHT22;1893;52.526;13.360;2022-07-23T02:08:12;17.50;99.90
3756;DHT22;1893;52.526;13.360;2022-07-23T02:10:38;17.40;99.90
3756;DHT22;1893;52.526;13.360;2022-07-23T02:13:03;17.40;99.90
3756;DHT22;1893;52.526;13.360;2022-07-23T02:15:29;17.50;99.90
3756;DHT22;1893;52.526;13.360;2022-07-23T02:17:55;17.60;99.90
3756;DHT22;1893;52.526;13.360;2022-07-23T02:20:21;17.50;99.90
3756;DHT22;1893;52.526;13.360;2022-07-23T02:22:46;17.40;99.90
3756;DHT22;1893;52.526;13.360;2022-07-23T02:25:12;17.30;99.90
3756;DHT22;1893;52.526;13.360;2022-07-23T02:27:38;17.40;99.90
3756;DHT22;1893;52.526;13.360;2022-07-23T02:30:04;17.50;99.90
3756;DHT22;1893;52.526;13.360;2022-07-23T02:32:30;17.30;99.90
3756;DHT22;1893;52.526;13.360;2022-07-23T02:34:55;17.30;99.90
3756;DHT22;1893;52.526;13.360;2022-07-23T02:37:21;17.40;99.90
3756;DHT22;1893;52.526;13.360;2022-07-23T02:39:47;17.40;99.90
3756;DHT22;1893;52.526;13.360;2022-07-23T02:42:14;17.30;99.90
3756;DHT22;1893;52.526;13.360;2022-07-23T02:44:39;17.30;99.90
3756;DHT22;1893;52.526;13.360;2022-07-23T02:47:05;17.40;99.90
3756;DHT22;1893;52.526;13.360;2022-07-23T02:49:30;17.30;99.90
3756;DHT22;1893;52.526;13.360;2022-07-23T02:51:56;17.30;99.90
3756;DHT22;1893;52.526;13.360;2022-07-23T02:54:21;17.20;99.90
3756;DHT22;1893;52.526;13.360;2022-07-23T02:56:47;17.20;99.90
3756;DHT22;1893;52.526;13.360;2022-07-23T02:59:13;17.20;99.90
3756;DHT22;1893;52.526;13.360;2022-07-23T03:01:38;17.10;99.90
3756;DHT22;1893;52.526;13.360;2022-07-23T03:04:04;17.10;99.90
3756;DHT22;1893;52.526;13.360;2022-07-23T03:06:30;17.10;99.90
3756;DHT22;1893;52.526;13.360;2022-07-23T03:08:55;17.00;99.90
3756;DHT22;1893;52.526;13.360;2022-07-23T03:11:21;17.00;99.90
3756;DHT22;1893;52.526;13.360;2022-07-23T03:13:46;17.10;99.90
3756;DHT22;1893;52.526;13.360;2022-07-23T03:16:12;17.20;99.90
3756;DHT22;1893;52.526;13.360;2022-07-23T03:18:37;17.10;99.90
3756;DHT22;1893;52.526;13.360;2022-07-23T03:21:03;17.20;80.30
3756;DHT22;1893;52.526;13.360;2022-07-23T03:23:29;17.10;49.70
3756;DHT22;1893;52.526;13.360;2022-07-23T03:25:54;17.00;29.10
3756;DHT22;1893;52.526;13.360;2022-07-23T03:28:20;17.00;23.50
3756;DHT22;1893;52.526;13.360;2022-07-23T03:30:46;17.00;9.90
3756;DHT22;1893;52.526;13.360;2022-07-23T03:33:16;17.00;1.00
3756;DHT22;1893;52.526;13.360;2022-07-23T03:35:43;16.90;18.70
3756;DHT22;1893;52.526;13.360;2022-07-23T03:38:08;16.90;8.70
3756;DHT22;1893;52.526;13.360;2022-07-23T03:40:34;17.00;1.00
3756;DHT22;1893;52.526;13.360;2022-07-23T03:43:00;17.00;1.00
3756;DHT22;1893;52.526;13.360;2022-07-23T03:45:25;17.00;1.00
3756;DHT22;1893;52.526;13.360;2022-07-23T03:47:51;16.90;1.00
3756;DHT22;1893;52.526;13.360;2022-07-23T03:50:17;16.90;1.00
3756;DHT22;1893;52.526;13.360;2022-07-23T03:52:42;17.00;1.00
3756;DHT22;1893;52.526;13.360;2022-07-23T03:55:08;17.00;1.00
3756;DHT22;1893;52.526;13.360;2022-07-23T03:57:34;16.90;99.90
3756;DHT22;1893;52.526;13.360;2022-07-23T03:59:59;17.00;99.90
3756;DHT22;1893;52.526;13.360;2022-07-23T04:02:25;16.90;99.90
3756;DHT22;1893;52.526;13.360;2022-07-23T04:04:51;16.90;1.00
3756;DHT22;1893;52.526;13.360;2022-07-23T04:07:17;16.90;1.00
3756;DHT22;1893;52.526;13.360;2022-07-23T04:09:43;16.90;1.00
3756;DHT22;1893;52.526;13.360;2022-07-23T04:12:09;16.90;99.90
3756;DHT22;1893;52.526;13.360;2022-07-23T04:14:35;17.00;99.90
3756;DHT22;1893;52.526;13.360;2022-07-23T04:17:01;17.00;1.00
3756;DHT22;1893;52.526;13.360;2022-07-23T04:19:27;16.90;1.00
3756;DHT22;1893;52.526;13.360;2022-07-23T04:21:52;16.90;1.00
3756;DHT22;1893;52.526;13.360;2022-07-23T04:24:18;17.00;1.00
3756;DHT22;1893;52.526;13.360;2022-07-23T04:26:44;17.00;1.00
3756;DHT22;1893;52.526;13.360;2022-07-23T04:29:10;17.00;1.00
3756;DHT22;1893;52.526;13.360;2022-07-23T04:31:35;17.00;99.90
3756;DHT22;1893;52.526;13.360;2022-07-23T04:34:01;17.10;45.60
3756;DHT22;1893;52.526;13.360;2022-07-23T04:36:27;17.10;1.00
3756;DHT22;1893;52.526;13.360;2022-07-23T04:38:53;16.80;1.00
3756;DHT22;1893;52.526;13.360;2022-07-23T04:41:18;16.70;46.90
3756;DHT22;1893;52.526;13.360;2022-07-23T04:43:44;16.40;99.90
3756;DHT22;1893;52.526;13.360;2022-07-23T04:46:09;16.30;99.90
3756;DHT22;1893;52.526;13.360;2022-07-23T04:48:36;16.00;99.90
3756;DHT22;1893;52.526;13.360;2022-07-23T04:51:01;16.00;99.90
3756;DHT22;1893;52.526;13.360;2022-07-23T04:53:27;15.90;99.90
3756;DHT22;1893;52.526;13.360;2022-07-23T04:55:53;15.80;99.90
3756;DHT22;1893;52.526;13.360;2022-07-23T04:58:18;15.70;99.90
3756;DHT22;1893;52.526;13.360;2022-07-23T05:00:44;15.60;99.90
3756;DHT22;1893;52.526;13.360;2022-07-23T05:03:09;15.50;99.90
3756;DHT22;1893;52.526;13.360;2022-07-23T05:05:35;15.50;99.90
3756;DHT22;1893;52.526;13.360;2022-07-23T05:08:01;15.50;99.90
3756;DHT22;1893;52.526;13.360;2022-07-23T05:10:27;15.50;99.90
3756;DHT22;1893;52.526;13.360;2022-07-23T05:12:53;15.50;99.90
3756;DHT22;1893;52.526;13.360;2022-07-23T05:15:18;15.50;99.90
3756;DHT22;1893;52.526;13.360;2022-07-23T05:17:44;15.50;99.90
3756;DHT22;1893;52.526;13.360;2022-07-23T05:20:09;15.40;99.90
3756;DHT22;1893;52.526;13.360;2022-07-23T05:22:35;15.50;99.90
3756;DHT22;1893;52.526;13.360;2022-07-23T05:25:01;15.40;99.90
3756;DHT22;1893;52.526;13.360;2022-07-23T05:27:26;15.40;99.90
3756;DHT22;1893;52.526;13.360;2022-07-23T05:29:52;15.20;99.90
3756;DHT22;1893;52.526;13.360;2022-07-23T05:32:17;15.40;99.90
3756;DHT22;1893;52.526;13.360;2022-07-23T05:34:43;15.30;99.90
3756;DHT22;1893;52.526;13.360;2022-07-23T05:37:08;15.20;99.90
3756;DHT22;1893;52.526;13.360;2022-07-23T05:39:34;15.10;99.90
3756;DHT22;1893;52.526;13.360;2022-07-23T05:41:59;15.20;99.90
3756;DHT22;1893;52.526;13.360;2022-07-23T05:44:25;15.30;99.90
3756;DHT22;1893;52.526;13.360;2022-07-23T05:46:52;15.30;99.90
3756;DHT22;1893;52.526;13.360;2022-07-23T05:49:18;15.40;99.90
3756;DHT22;1893;52.526;13.360;2022-07-23T05:51:43;15.40;99.90
3756;DHT22;1893;52.526;13.360;2022-07-23T05:54:09;15.20;99.90
3756;DHT22;1893;52.526;13.360;2022-07-23T05:56:35;15.40;99.90
3756;DHT22;1893;52.526;13.360;2022-07-23T05:59:00;15.40;99.90
3756;DHT22;1893;52.526;13.360;2022-07-23T06:01:26;15.40;99.90
3756;DHT22;1893;52.526;13.360;2022-07-23T06:03:52;15.50;99.90
3756;DHT22;1893;52.526;13.360;2022-07-23T06:06:17;15.50;99.90
3756;DHT22;1893;52.526;13.360;2022-07-23T06:08:43;15.50;99.90
3756;DHT22;1893;52.526;13.360;2022-07-23T06:11:08;15.50;99.90
3756;DHT22;1893;52.526;13.360;2022-07-23T06:13:34;15.50;99.90
3756;DHT22;1893;52.526;13.360;2022-07-23T06:16:00;15.50;99.90
3756;DHT22;1893;52.526;13.360;2022-07-23T06:18:25;15.50;99.90
3756;DHT22;1893;52.526;13.360;2022-07-23T06:20:51;15.50;99.90
3756;DHT22;1893;52.526;13.360;2022-07-23T06:23:16;15.50;99.90
3756;DHT22;1893;52.526;13.360;2022-07-23T06:25:42;15.50;99.90
3756;DHT22;1893;52.526;13.360;2022-07-23T06:28:07;15.50;99.90
3756;DHT22;1893;52.526;13.360;2022-07-23T06:30:33;15.40;99.90
3756;DHT22;1893;52.526;13.360;2022-07-23T06:32:58;15.50;99.90
3756;DHT22;1893;52.526;13.360;2022-07-23T06:35:24;15.50;99.90
3756;DHT22;1893;52.526;13.360;2022-07-23T06:37:50;15.50;99.90
3756;DHT22;1893;52.526;13.360;2022-07-23T06:40:15;15.50;99.90
3756;DHT22;1893;52.526;13.360;2022-07-23T06:42:41;15.50;99.90
3756;DHT22;1893;52.526;13.360;2022-07-23T06:45:07;15.50;99.90
3756;DHT22;1893;52.526;13.360;2022-07-23T06:47:33;15.60;99.90
3756;DHT22;1893;52.526;13.360;2022-07-23T06:49:58;15.50;99.90
3756;DHT22;1893;52.526;13.360;2022-07-23T06:52:24;15.70;99.90
3756;DHT22;1893;52.526;13.360;2022-07-23T06:54:51;15.70;99.90
3756;DHT22;1893;52.526;13.360;2022-07-23T06:57:17;15.80;99.90
3756;DHT22;1893;52.526;13.360;2022-07-23T06:59:42;15.80;99.90
3756;DHT22;1893;52.526;13.360;2022-07-23T07:02:09;15.80;99.90
3756;DHT22;1893;52.526;13.360;2022-07-23T07:04:34;15.80;99.90
3756;DHT22;1893;52.526;13.360;2022-07-23T07:07:00;15.80;99.90
3756;DHT22;1893;52.526;13.360;2022-07-23T07:09:26;15.80;99.90
3756;DHT22;1893;52.526;13.360;2022-07-23T07:11:51;15.80;99.90
3756;DHT22;1893;52.526;13.360;2022-07-23T07:14:19;15.90;99.90
3756;DHT22;1893;52.526;13.360;2022-07-23T07:16:44;15.80;99.90
3756;DHT22;1893;52.526;13.360;2022-07-23T07:19:10;16.00;99.90
3756;DHT22;1893;52.526;13.360;2022-07-23T07:21:35;16.10;99.90
3756;DHT22;1893;52.526;13.360;2022-07-23T07:24:01;16.30;99.90
3756;DHT22;1893;52.526;13.360;2022-07-23T07:26:27;16.30;99.90
3756;DHT22;1893;52.526;13.360;2022-07-23T07:28:53;16.40;99.90
3756;DHT22;1893;52.526;13.360;2022-07-23T07:31:18;16.40;99.90
3756;DHT22;1893;52.526;13.360;2022-07-23T07:33:44;16.50;99.90
3756;DHT22;1893;52.526;13.360;2022-07-23T07:36:09;16.50;99.90
3756;DHT22;1893;52.526;13.360;2022-07-23T07:38:35;16.60;99.90
3756;DHT22;1893;52.526;13.360;2022-07-23T07:41:00;16.60;99.90
3756;DHT22;1893;52.526;13.360;2022-07-23T07:43:26;16.60;99.90
3756;DHT22;1893;52.526;13.360;2022-07-23T07:45:52;16.70;99.90
3756;DHT22;1893;52.526;13.360;2022-07-23T07:48:17;16.80;99.90
3756;DHT22;1893;52.526;13.360;2022-07-23T07:50:43;16.80;99.90
3756;DHT22;1893;52.526;13.360;2022-07-23T07:53:08;16.80;99.90
3756;DHT22;1893;52.526;13.360;2022-07-23T07:55:34;16.90;99.90
3756;DHT22;1893;52.526;13.360;2022-07-23T07:58:00;17.00;99.90
3756;DHT22;1893;52.526;13.360;2022-07-23T08:00:26;17.00;99.90
3756;DHT22;1893;52.526;13.360;2022-07-23T08:02:53;17.10;99.90
3756;DHT22;1893;52.526;13.360;2022-07-23T08:05:20;17.10;99.90
3756;DHT22;1893;52.526;13.360;2022-07-23T08:07:46;17.20;99.90
3756;DHT22;1893;52.526;13.360;2022-07-23T08:10:12;17.30;99.90
3756;DHT22;1893;52.526;13.360;2022-07-23T08:12:49;17.60;99.90
3756;DHT22;1893;52.526;13.360;2022-07-23T08:15:17;18.10;99.90
3756;DHT22;1893;52.526;13.360;2022-07-23T08:17:44;18.10;99.90
3756;DHT22;1893;52.526;13.360;2022-07-23T08:20:12;18.10;99.90
3756;DHT22;1893;52.526;13.360;2022-07-23T08:22:48;18.30;99.90
3756;DHT22;1893;52.526;13.360;2022-07-23T08:25:15;18.30;99.90
3756;DHT22;1893;52.526;13.360;2022-07-23T08:27:41;18.40;99.90
3756;DHT22;1893;52.526;13.360;2022-07-23T08:30:07;18.50;99.90
3756;DHT22;1893;52.526;13.360;2022-07-23T08:32:33;18.20;99.90
3756;DHT22;1893;52.526;13.360;2022-07-23T08:35:16;18.10;99.90
3756;DHT22;1893;52.526;13.360;2022-07-23T08:37:41;18.00;99.90
3756;DHT22;1893;52.526;13.360;2022-07-23T08:40:08;18.30;99.90
3756;DHT22;1893;52.526;13.360;2022-07-23T08:42:34;18.50;99.90
3756;DHT22;1893;52.526;13.360;2022-07-23T08:45:03;18.70;99.90
3756;DHT22;1893;52.526;13.360;2022-07-23T08:47:29;18.80;99.90
3756;DHT22;1893;52.526;13.360;2022-07-23T08:49:57;18.80;99.90
3756;DHT22;1893;52.526;13.360;2022-07-23T08:52:24;19.10;99.90
3756;DHT22;1893;52.526;13.360;2022-07-23T08:54:50;19.20;99.90
3756;DHT22;1893;52.526;13.360;2022-07-23T08:57:16;19.50;99.90
3756;DHT22;1893;52.526;13.360;2022-07-23T08:59:42;19.50;99.90
3756;DHT22;1893;52.526;13.360;2022-07-23T09:02:08;19.60;99.90
3756;DHT22;1893;52.526;13.360;2022-07-23T09:04:34;19.60;99.90
3756;DHT22;1893;52.526;13.360;2022-07-23T09:07:01;19.80;99.90
3756;DHT22;1893;52.526;13.360;2022-07-23T09:09:27;19.70;99.90
3756;DHT22;1893;52.526;13.360;2022-07-23T09:12:10;19.80;99.90
3756;DHT22;1893;52.526;13.360;2022-07-23T09:14:41;19.90;98.70
3756;DHT22;1893;52.526;13.360;2022-07-23T09:17:14;19.80;1.00
3756;DHT22;1893;52.526;13.360;2022-07-23T09:19:41;19.70;1.00
3756;DHT22;1893;52.526;13.360;2022-07-23T09:22:25;19.60;1.00
3756;DHT22;1893;52.526;13.360;2022-07-23T09:27:58;20.10;99.90
3756;DHT22;1893;52.526;13.360;2022-07-23T09:30:30;20.00;1.00
3756;DHT22;1893;52.526;13.360;2022-07-23T09:33:15;19.80;31.40
3756;DHT22;1893;52.526;13.360;2022-07-23T09:38:14;20.70;1.00
3756;DHT22;1893;52.526;13.360;2022-07-23T09:40:40;20.80;1.00
3756;DHT22;1893;52.526;13.360;2022-07-23T09:43:05;20.60;1.00
3756;DHT22;1893;52.526;13.360;2022-07-23T09:45:31;20.20;1.00
3756;DHT22;1893;52.526;13.360;2022-07-23T09:48:13;20.50;1.00
3756;DHT22;1893;52.526;13.360;2022-07-23T09:50:40;21.10;1.00
3756;DHT22;1893;52.526;13.360;2022-07-23T09:53:06;21.00;99.90
3756;DHT22;1893;52.526;13.360;2022-07-23T09:55:34;21.00;1.00
3756;DHT22;1893;52.526;13.360;2022-07-23T09:58:06;21.20;1.00
3756;DHT22;1893;52.526;13.360;2022-07-23T10:00:42;21.20;99.90
3756;DHT22;1893;52.526;13.360;2022-07-23T10:03:10;21.60;1.00
3756;DHT22;1893;52.526;13.360;2022-07-23T10:05:37;22.20;1.00
3756;DHT22;1893;52.526;13.360;2022-07-23T10:08:03;22.60;99.90
3756;DHT22;1893;52.526;13.360;2022-07-23T10:10:30;22.70;99.90
3756;DHT22;1893;52.526;13.360;2022-07-23T10:12:56;22.40;99.90
3756;DHT22;1893;52.526;13.360;2022-07-23T10:15:22;21.90;1.00
3756;DHT22;1893;52.526;13.360;2022-07-23T10:17:48;22.30;1.00
3756;DHT22;1893;52.526;13.360;2022-07-23T10:20:14;22.20;1.00
3756;DHT22;1893;52.526;13.360;2022-07-23T10:22:47;22.30;99.90
3756;DHT22;1893;52.526;13.360;2022-07-23T10:25:33;22.50;87.90
3756;DHT22;1893;52.526;13.360;2022-07-23T10:28:16;22.30;18.70
3756;DHT22;1893;52.526;13.360;2022-07-23T10:31:08;22.00;99.90
3756;DHT22;1893;52.526;13.360;2022-07-23T10:33:55;21.90;99.90
3756;DHT22;1893;52.526;13.360;2022-07-23T10:36:39;21.60;99.90
3756;DHT22;1893;52.526;13.360;2022-07-23T10:39:08;21.30;99.90
3756;DHT22;1893;52.526;13.360;2022-07-23T10:41:39;21.40;1.00
3756;DHT22;1893;52.526;13.360;2022-07-23T10:44:15;21.90;1.00
3756;DHT22;1893;52.526;13.360;2022-07-23T10:46:55;22.20;99.90
3756;DHT22;1893;52.526;13.360;2022-07-23T10:49:31;23.00;1.00
3756;DHT22;1893;52.526;13.360;2022-07-23T10:54:40;24.60;1.00
3756;DHT22;1893;52.526;13.360;2022-07-23T10:57:11;25.40;1.00
3756;DHT22;1893;52.526;13.360;2022-07-23T11:02:42;25.40;1.00
3756;DHT22;1893;52.526;13.360;2022-07-23T11:05:10;25.80;1.00
3756;DHT22;1893;52.526;13.360;2022-07-23T11:08:11;26.60;1.00
3756;DHT22;1893;52.526;13.360;2022-07-23T11:23:58;27.20;99.90
3756;DHT22;1893;52.526;13.360;2022-07-23T11:37:05;26.20;99.90
3756;DHT22;1893;52.526;13.360;2022-07-23T11:39:32;26.60;99.90
3756;DHT22;1893;52.526;13.360;2022-07-23T11:41:59;26.80;99.90
3756;DHT22;1893;52.526;13.360;2022-07-23T11:44:36;26.20;99.90
3756;DHT22;1893;52.526;13.360;2022-07-23T11:47:07;24.90;99.90
3756;DHT22;1893;52.526;13.360;2022-07-23T11:49:34;23.70;1.00
3756;DHT22;1893;52.526;13.360;2022-07-23T11:52:13;23.50;1.00
3756;DHT22;1893;52.526;13.360;2022-07-23T11:57:14;23.30;1.00
3756;DHT22;1893;52.526;13.360;2022-07-23T11:59:41;23.20;99.90
3756;DHT22;1893;52.526;13.360;2022-07-23T12:02:07;23.10;88.50
3756;DHT22;1893;52.526;13.360;2022-07-23T12:04:43;23.30;90.80
3756;DHT22;1893;52.526;13.360;2022-07-23T12:07:38;23.20;29.20
3756;DHT22;1893;52.526;13.360;2022-07-23T12:15:04;22.80;99.90
3756;DHT22;1893;52.526;13.360;2022-07-23T12:17:32;22.40;99.90
3756;DHT22;1893;52.526;13.360;2022-07-23T12:19:58;22.50;99.90
3756;DHT22;1893;52.526;13.360;2022-07-23T12:22:26;22.60;99.90
3756;DHT22;1893;52.526;13.360;2022-07-23T12:25:00;22.60;99.90
3756;DHT22;1893;52.526;13.360;2022-07-23T12:27:26;22.80;99.90
3756;DHT22;1893;52.526;13.360;2022-07-23T12:29:52;22.90;1.00
3756;DHT22;1893;52.526;13.360;2022-07-23T12:32:28;22.80;27.90
3756;DHT22;1893;52.526;13.360;2022-07-23T12:35:08;22.90;1.00
3756;DHT22;1893;52.526;13.360;2022-07-23T12:37:38;22.90;1.00
3756;DHT22;1893;52.526;13.360;2022-07-23T12:42:47;23.90;1.00
3756;DHT22;1893;52.526;13.360;2022-07-23T12:45:12;23.70;1.00
3756;DHT22;1893;52.526;13.360;2022-07-23T12:48:00;23.70;1.00
3756;DHT22;1893;52.526;13.360;2022-07-23T12:50:44;23.60;1.00
3756;DHT22;1893;52.526;13.360;2022-07-23T12:53:16;23.80;1.00
3756;DHT22;1893;52.526;13.360;2022-07-23T12:55:43;23.80;1.00
3756;DHT22;1893;52.526;13.360;2022-07-23T12:58:19;23.60;1.00
3756;DHT22;1893;52.526;13.360;2022-07-23T13:01:00;23.40;1.00
3756;DHT22;1893;52.526;13.360;2022-07-23T13:03:38;23.70;1.00
3756;DHT22;1893;52.526;13.360;2022-07-23T13:06:07;23.70;1.00
3756;DHT22;1893;52.526;13.360;2022-07-23T13:08:34;23.90;1.00
3756;DHT22;1893;52.526;13.360;2022-07-23T13:11:00;23.90;1.00
3756;DHT22;1893;52.526;13.360;2022-07-23T13:13:28;23.70;1.00
3756;DHT22;1893;52.526;13.360;2022-07-23T13:15:54;23.70;1.00
3756;DHT22;1893;52.526;13.360;2022-07-23T13:18:21;23.50;1.00
3756;DHT22;1893;52.526;13.360;2022-07-23T13:20:47;23.90;1.00
3756;DHT22;1893;52.526;13.360;2022-07-23T13:23:14;24.30;1.00
3756;DHT22;1893;52.526;13.360;2022-07-23T13:25:40;24.20;1.00
3756;DHT22;1893;52.526;13.360;2022-07-23T13:28:06;24.50;1.00
3756;DHT22;1893;52.526;13.360;2022-07-23T13:30:32;24.50;1.00
3756;DHT22;1893;52.526;13.360;2022-07-23T13:32:59;24.70;1.00
3756;DHT22;1893;52.526;13.360;2022-07-23T13:35:24;24.70;1.00
3756;DHT22;1893;52.526;13.360;2022-07-23T13:37:50;24.50;99.90
3756;DHT22;1893;52.526;13.360;2022-07-23T13:40:16;24.20;99.90
3756;DHT22;1893;52.526;13.360;2022-07-23T13:42:41;24.00;1.00
3756;DHT22;1893;52.526;13.360;2022-07-23T13:45:08;23.80;1.00
3756;DHT22;1893;52.526;13.360;2022-07-23T13:47:34;23.80;1.00
3756;DHT22;1893;52.526;13.360;2022-07-23T13:49:59;23.60;1.00
3756;DHT22;1893;52.526;13.360;2022-07-23T13:52:25;23.40;1.00
3756;DHT22;1893;52.526;13.360;2022-07-23T13:54:51;23.30;1.00
3756;DHT22;1893;52.526;13.360;2022-07-23T13:57:17;23.40;1.00
3756;DHT22;1893;52.526;13.360;2022-07-23T13:59:42;23.20;1.00
3756;DHT22;1893;52.526;13.360;2022-07-23T14:02:08;23.20;1.00
3756;DHT22;1893;52.526;13.360;2022-07-23T14:04:34;23.70;1.00
3756;DHT22;1893;52.526;13.360;2022-07-23T14:07:00;23.90;1.00
3756;DHT22;1893;52.526;13.360;2022-07-23T14:09:26;24.20;1.00
3756;DHT22;1893;52.526;13.360;2022-07-23T14:11:53;24.10;1.00
3756;DHT22;1893;52.526;13.360;2022-07-23T14:14:19;24.10;1.00
3756;DHT22;1893;52.526;13.360;2022-07-23T14:16:44;24.10;1.00
3756;DHT22;1893;52.526;13.360;2022-07-23T14:19:11;24.30;1.00
3756;DHT22;1893;52.526;13.360;2022-07-23T14:21:37;24.50;99.90
3756;DHT22;1893;52.526;13.360;2022-07-23T14:24:03;24.20;99.90
3756;DHT22;1893;52.526;13.360;2022-07-23T14:26:28;24.00;99.90
3756;DHT22;1893;52.526;13.360;2022-07-23T14:28:54;23.80;99.90
3756;DHT22;1893;52.526;13.360;2022-07-23T14:31:20;23.70;99.90
3756;DHT22;1893;52.526;13.360;2022-07-23T14:33:45;23.50;1.00
3756;DHT22;1893;52.526;13.360;2022-07-23T14:36:11;23.30;1.00
3756;DHT22;1893;52.526;13.360;2022-07-23T14:38:36;23.20;1.00
3756;DHT22;1893;52.526;13.360;2022-07-23T14:41:02;23.30;1.00
3756;DHT22;1893;52.526;13.360;2022-07-23T14:43:32;23.30;1.00
3756;DHT22;1893;52.526;13.360;2022-07-23T14:45:58;23.30;1.00
3756;DHT22;1893;52.526;13.360;2022-07-23T14:48:23;23.30;1.00
3756;DHT22;1893;52.526;13.360;2022-07-23T14:50:49;23.30;1.00
3756;DHT22;1893;52.526;13.360;2022-07-23T14:53:14;23.30;1.00
3756;DHT22;1893;52.526;13.360;2022-07-23T14:55:40;23.30;99.90
3756;DHT22;1893;52.526;13.360;2022-07-23T14:58:05;23.40;99.90
3756;DHT22;1893;52.526;13.360;2022-07-23T15:00:31;23.70;99.90
3756;DHT22;1893;52.526;13.360;2022-07-23T15:02:56;23.90;99.90
3756;DHT22;1893;52.526;13.360;2022-07-23T15:05:22;23.80;99.90
3756;DHT22;1893;52.526;13.360;2022-07-23T15:07:48;23.70;99.90
3756;DHT22;1893;52.526;13.360;2022-07-23T15:10:14;23.70;99.90
3756;DHT22;1893;52.526;13.360;2022-07-23T15:12:40;23.50;99.90
3756;DHT22;1893;52.526;13.360;2022-07-23T15:15:05;23.50;99.90
3756;DHT22;1893;52.526;13.360;2022-07-23T15:17:33;23.30;99.90
3756;DHT22;1893;52.526;13.360;2022-07-23T15:19:58;23.70;99.90
3756;DHT22;1893;52.526;13.360;2022-07-23T15:22:24;24.20;99.90
3756;DHT22;1893;52.526;13.360;2022-07-23T15:24:50;24.60;99.90
3756;DHT22;1893;52.526;13.360;2022-07-23T15:27:15;24.50;99.90
3756;DHT22;1893;52.526;13.360;2022-07-23T15:29:43;24.40;99.90
3756;DHT22;1893;52.526;13.360;2022-07-23T15:32:09;24.60;99.90
3756;DHT22;1893;52.526;13.360;2022-07-23T15:34:34;24.70;99.90
3756;DHT22;1893;52.526;13.360;2022-07-23T15:37:00;24.50;99.90
3756;DHT22;1893;52.526;13.360;2022-07-23T15:39:26;24.40;99.90
3756;DHT22;1893;52.526;13.360;2022-07-23T15:41:52;24.50;99.90
3756;DHT22;1893;52.526;13.360;2022-07-23T15:44:18;24.30;99.90
3756;DHT22;1893;52.526;13.360;2022-07-23T15:46:43;23.90;99.90
3756;DHT22;1893;52.526;13.360;2022-07-23T15:49:09;23.70;99.90
3756;DHT22;1893;52.526;13.360;2022-07-23T15:51:34;23.50;99.90
3756;DHT22;1893;52.526;13.360;2022-07-23T15:54:00;23.40;99.90
3756;DHT22;1893;52.526;13.360;2022-07-23T15:56:26;23.50;99.90
3756;DHT22;1893;52.526;13.360;2022-07-23T15:58:51;23.50;99.90
3756;DHT22;1893;52.526;13.360;2022-07-23T16:01:17;23.50;99.90
3756;DHT22;1893;52.526;13.360;2022-07-23T16:03:42;23.40;99.90
3756;DHT22;1893;52.526;13.360;2022-07-23T16:06:08;23.50;99.90
3756;DHT22;1893;52.526;13.360;2022-07-23T16:08:34;23.70;99.90
3756;DHT22;1893;52.526;13.360;2022-07-23T16:10:59;23.90;99.90
3756;DHT22;1893;52.526;13.360;2022-07-23T16:13:27;23.80;99.90
3756;DHT22;1893;52.526;13.360;2022-07-23T16:15:53;23.80;99.90
3756;DHT22;1893;52.526;13.360;2022-07-23T16:18:20;23.60;99.90
3756;DHT22;1893;52.526;13.360;2022-07-23T16:20:48;23.50;99.90
3756;DHT22;1893;52.526;13.360;2022-07-23T16:23:14;23.60;99.90
3756;DHT22;1893;52.526;13.360;2022-07-23T16:25:39;23.60;99.90
3756;DHT22;1893;52.526;13.360;2022-07-23T16:28:06;23.70;99.90
3756;DHT22;1893;52.526;13.360;2022-07-23T16:30:32;23.90;99.90
3756;DHT22;1893;52.526;13.360;2022-07-23T16:32:59;24.00;99.90
3756;DHT22;1893;52.526;13.360;2022-07-23T16:35:25;24.00;99.90
3756;DHT22;1893;52.526;13.360;2022-07-23T16:37:51;23.90;99.90